Elkhart, KS

9:30 PM CDT on June 28, 2017 (GMT -0500)
Elkhart-Morton County

Weather History for KEHA - April, 2013

Change the Weather History Date:

Thursday, April 18, 2013

  Actual Average Record
Temperature  
Mean Temperature 32 °F -  
Max Temperature 41 °F 65 °F 87 °F (2002)
Min Temperature 23 °F 38 °F 23 °F (2013)
Degree Days  
Heating Degree Days 33    
Moisture  
Dew Point 15 °F    
Average Humidity 54    
Maximum Humidity 75    
Minimum Humidity 31    
Precipitation  
Precipitation 0.00 in - - ()
Wind  
Wind Speed 18 mph (NNW)    
Max Wind Speed 26 mph    
Max Gust Speed -    
Averages and records for this station are not official NWS values.
T = Trace of Precipitation, MM = Missing Value Source: NWS Daily Summary

Daily Weather History Graph

Daily Weather History Graph

Search for Another Location

Airport or City:

Trip Planner

Search our weather history database for the weather conditions in past years. The results will help you decide how hot, cold, wet, or windy it might be!

Date:

Astronomy

Apr. 18, 2013 Rise Set
Actual Time 7:08 AM CDT 8:25 PM CDT
Civil Twilight 6:41 AM CDT 8:52 PM CDT
Nautical Twilight 6:09 AM CDT 9:24 PM CDT
Astronomical Twilight 5:36 AM CDT 9:58 PM CDT
Moon 1:24 PM CDT (4/18) 2:39 AM CDT (4/18)
Length of Visible Light 14h 10m
Length of Day
13h 16m
First Quarter, 52% of the Moon is Illuminated
Apr 18
First Quarter
Apr 25
Full
May 2
Last Quarter
May 9
New
May 17
First Quarter

Hourly Weather History & Observations

Time (CDT) Temp. Windchill Dew Point Humidity Pressure Visibility Wind Dir Wind Speed Gust Speed Precip Events Conditions
12:08 AM 30.0 °F 17.2 °F 20.1 °F 67% - - NNW 20.7 mph - N/A   Unknown
12:28 AM 28.0 °F 14.9 °F 20.1 °F 72% - - NNW 19.6 mph - N/A   Unknown
12:48 AM 28.0 °F 16.1 °F 19.0 °F 69% - - NNW 16.1 mph - N/A   Unknown
1:08 AM 27.0 °F 13.2 °F 20.1 °F 75% - - NNW 20.7 mph - N/A   Unknown
1:28 AM 27.0 °F 13.9 °F 19.0 °F 72% - - NNW 18.4 mph - N/A   Unknown
1:48 AM 27.0 °F 13.5 °F 19.0 °F 72% - - NNW 19.6 mph - N/A   Unknown
2:08 AM 26.1 °F 12.7 °F 18.1 °F 72% - - NNW 18.4 mph - N/A   Unknown
2:28 AM 26.1 °F 12.0 °F 18.1 °F 72% - - NNW 20.7 mph - N/A   Unknown
2:48 AM 26.1 °F 13.6 °F 19.0 °F 75% - - NNW 16.1 mph - N/A   Unknown
3:08 AM 26.1 °F 12.7 °F 18.1 °F 72% - - NNW 18.4 mph - N/A   Unknown
3:28 AM 26.1 °F 12.3 °F 15.1 °F 63% - - NNW 19.6 mph - N/A   Unknown
3:48 AM 25.0 °F 11.7 °F 16.2 °F 69% - - NNW 17.3 mph - N/A   Unknown
4:08 AM 24.1 °F 11.0 °F 17.1 °F 75% - - NNW 16.1 mph - N/A   Unknown
4:28 AM 24.1 °F 10.1 °F 15.1 °F 69% - - NNW 18.4 mph - N/A   Unknown
4:48 AM 24.1 °F 10.1 °F 14.0 °F 65% - - NNW 18.4 mph - N/A   Unknown
5:08 AM 24.1 °F 10.6 °F 15.1 °F 69% - - NNW 17.3 mph - N/A   Unknown
5:28 AM 24.1 °F 12.0 °F 15.1 °F 69% - - NNW 13.8 mph - N/A   Unknown
5:48 AM 24.1 °F 11.5 °F 14.0 °F 65% - - NNW 15.0 mph - N/A   Unknown
6:08 AM 24.1 °F 10.6 °F 16.2 °F 72% - - NNW 17.3 mph - N/A   Unknown
6:28 AM 24.1 °F 11.5 °F 14.0 °F 65% - - NNW 15.0 mph - N/A   Unknown
6:48 AM 23.0 °F 11.1 °F 16.2 °F 75% - - NNW 12.7 mph - N/A   Unknown
7:08 AM 23.0 °F 10.1 °F 14.0 °F 68% - - NNW 15.0 mph - N/A   Unknown
7:28 AM 24.1 °F 12.0 °F 14.0 °F 65% - - NNW 13.8 mph - N/A   Unknown
7:48 AM 24.1 °F 12.5 °F 14.0 °F 65% - - NNW 12.7 mph - N/A   Unknown
8:08 AM 25.0 °F 14.2 °F 14.0 °F 63% - - NNW 11.5 mph - N/A   Unknown
8:28 AM 26.1 °F 14.5 °F 15.1 °F 63% - - NNW 13.8 mph - N/A   Unknown
8:48 AM 27.0 °F 13.9 °F 14.0 °F 58% - - NNW 18.4 mph - N/A   Unknown
9:08 AM 27.0 °F 15.2 °F 16.2 °F 64% - - NW 15.0 mph - N/A   Unknown
9:28 AM 28.0 °F 15.3 °F 14.0 °F 56% - - NNW 18.4 mph - N/A   Unknown
9:48 AM 28.9 °F 16.9 °F 16.2 °F 59% - - NW 17.3 mph - N/A   Unknown
10:08 AM 30.0 °F 19.1 °F 17.1 °F 59% - - NW 15.0 mph - N/A   Unknown
10:28 AM 30.0 °F 18.7 °F 16.2 °F 56% - - NW 16.1 mph - N/A   Unknown
10:48 AM 30.9 °F 19.8 °F 17.1 °F 57% - - NW 16.1 mph - N/A   Unknown
11:08 AM 30.9 °F 19.4 °F 14.0 °F 50% - - NW 17.3 mph - N/A   Unknown
11:28 AM 30.9 °F 19.4 °F 17.1 °F 57% - - NW 17.3 mph - N/A   Unknown
11:50 AM 32.0 °F 20.8 °F 18.1 °F 57% - - NW 17.3 mph - N/A   Unknown
12:08 PM 32.0 °F 19.2 °F 15.1 °F 50% - - NNW 23.0 mph - N/A   Unknown
12:28 PM 33.1 °F 22.2 °F 16.2 °F 50% - - NW 17.3 mph - N/A   Unknown
12:48 PM 33.1 °F 21.5 °F 16.2 °F 50% - - NW 19.6 mph - N/A   Unknown
1:08 PM 34.0 °F 21.8 °F 16.2 °F 48% - - NW 23.0 mph - N/A   Unknown
1:28 PM 34.0 °F 22.7 °F 15.1 °F 46% - - NW 19.6 mph - N/A   Unknown
1:48 PM 35.1 °F 24.1 °F 16.2 °F 46% - - NNW 19.6 mph - N/A   Unknown
2:08 PM 36.0 °F 24.7 °F 15.1 °F 43% - - NW 21.9 mph - N/A   Unknown
2:28 PM - - - N/A% - - North - - N/A   Unknown
2:48 PM 37.0 °F 26.4 °F 16.2 °F 43% - - NNW 20.7 mph - N/A   Unknown
3:08 PM 37.9 °F 27.3 °F 16.2 °F 41% - - NNW 21.9 mph - N/A   Unknown
3:28 PM 37.9 °F 26.8 °F 13.1 °F 36% - - NNW 24.2 mph - N/A   Unknown
3:48 PM 39.0 °F 29.9 °F 14.0 °F 36% - - NNW 17.3 mph - N/A   Unknown
4:08 PM 39.9 °F 30.0 °F 15.1 °F 36% - - NW 21.9 mph - N/A   Unknown
4:28 PM 39.9 °F 29.5 °F 13.1 °F 33% - - NW 24.2 mph - N/A   Unknown
4:48 PM 41.0 °F 31.9 °F 14.0 °F 33% - - NW 19.6 mph - N/A   Unknown
5:08 PM 39.0 °F 28.5 °F 12.0 °F 33% - - NW 23.0 mph - N/A   Unknown
5:28 PM 39.9 °F 31.8 °F 15.1 °F 36% - - NNW 15.0 mph - N/A   Unknown
5:50 PM 41.0 °F 32.8 °F 13.1 °F 32% - - NW 16.1 mph - N/A   Unknown
6:08 PM 41.0 °F 31.4 °F 12.0 °F 31% - - NW 21.9 mph - N/A   Unknown
6:28 PM 41.0 °F 31.9 °F 12.0 °F 31% - - NW 19.6 mph - N/A   Unknown
6:48 PM 39.9 °F 29.7 °F 12.0 °F 32% - - NW 23.0 mph - N/A   Unknown
7:08 PM 39.9 °F 30.0 °F 11.1 °F 31% - - NW 21.9 mph - N/A   Unknown
7:28 PM 39.0 °F 27.8 °F 12.0 °F 33% - - NNW 26.5 mph - N/A   Unknown
7:48 PM 37.9 °F 27.6 °F 12.0 °F 35% - - NNW 20.7 mph - N/A   Unknown
8:08 PM 37.0 °F 26.2 °F 10.0 °F 33% - - NNW 21.9 mph - N/A   Unknown
8:28 PM 36.0 °F 27.1 °F 14.0 °F 41% - - NNW 13.8 mph - N/A   Unknown
8:48 PM 35.1 °F 26.9 °F 14.0 °F 42% - - NNW 11.5 mph - N/A   Unknown
9:08 PM 35.1 °F 27.9 °F 14.0 °F 42% - - NW 9.2 mph - N/A   Unknown
9:28 PM 34.0 °F 26.0 °F 14.0 °F 44% - - NW 10.4 mph - N/A   Unknown
9:48 PM 34.0 °F 26.6 °F 14.0 °F 44% - - NW 9.2 mph - N/A   Unknown
10:08 PM 33.1 °F 26.9 °F 15.1 °F 48% - - NW 6.9 mph - N/A   Unknown
10:28 PM 33.1 °F 26.9 °F 15.1 °F 48% - - NW 6.9 mph - N/A   Unknown
10:48 PM 32.0 °F 25.6 °F 15.1 °F 50% - - NW 6.9 mph - N/A   Unknown
11:08 PM 30.9 °F 25.2 °F 14.0 °F 50% - - NW 5.8 mph - N/A   Unknown
11:28 PM 30.0 °F 23.2 °F 15.1 °F 54% - - WNW 6.9 mph - N/A   Unknown
11:48 PM 30.0 °F 22.4 °F 14.0 °F 51% - - WNW 8.1 mph - N/A   Unknown